METAR Data
IDs: Format: Raw Decoded Include TAF

Data at: 2022 UTC 18 Jul 2019

KCOS 181954Z 16013G21KT 140V210 10SM BKN250 35/M01 A3005 RMK AO2 SLP066 T03501006